Time;durP1;ratioP1;P1;durP2;ratioP2;P2;SDS_P1;SDS_P2;PMS_P1;PMS_P2;Temp;Humidity;BMP_temperature;BMP_pressure;BME280_temperature;BME280_humidity;BME280_pressure;Samples;Min_cycle;Max_cycle;Signal;HPM_P1;HPM_P2
2022/04/08 00:00:57;;;;;;;;;;;;;;;17.53;66.11;99302.72;5052252;28;1362;-59
2022/04/08 00:03:24;;;;;;;;;;;;;;;17.55;66.40;99311.44;5049568;28;1314;-58
2022/04/08 00:05:52;;;;;;;;;;;;;;;17.52;66.19;99295.72;5046965;28;1514;-59
2022/04/08 00:08:18;;;;;;;;;;;;;;;17.48;65.96;99298.72;5053262;28;1586;-58
2022/04/08 00:10:45;;;;;;;;;;;;;;;17.49;66.50;99300.41;5044199;28;1440;-59
2022/04/08 00:13:12;;;;;;;;;;;;;;;17.51;66.38;99292.22;5041398;28;1381;-58
2022/04/08 00:15:38;;;;;;;;;;;;;;;17.50;66.47;99307.41;5050110;28;1419;-58
2022/04/08 00:18:05;;;;;;;;;;;;;;;17.50;66.27;99315.41;5039069;28;1985;-57
2022/04/08 00:20:32;;;;;;;;;;;;;;;17.46;66.40;99303.38;5051488;28;1443;-58
2022/04/08 00:23:01;;;;;;;;;;;;;;;17.47;66.08;99310.41;5051643;28;1503;-59
2022/04/08 00:25:28;;;;;;;;;;;;;;;17.46;66.09;99300.72;5042880;28;1595;-59
2022/04/08 00:27:54;;;;;;;;;;;;;;;17.47;66.02;99313.09;5044969;28;1509;-58
2022/04/08 00:30:21;;;;;;;;;;;;;;;17.49;66.16;99302.25;5049889;28;1389;-59
2022/04/08 00:32:48;;;;;;;;;;;;;;;17.47;66.41;99309.59;5047286;28;1566;-57
2022/04/08 00:35:14;;;;;;;;;;;;;;;17.46;66.46;99299.88;5043514;28;1532;-57
2022/04/08 00:37:41;;;;;;;;;;;;;;;17.39;66.37;99305.03;5051871;28;1985;-59
2022/04/08 00:40:10;;;;;;;;;;;;;;;17.45;66.24;99320.44;5049243;28;1338;-58
2022/04/08 00:42:37;;;;;;;;;;;;;;;17.44;66.10;99302.69;5034706;28;969;-57
2022/04/08 00:45:05;;;;;;;;;;;;;;;17.45;66.34;99312.41;5048157;28;1692;-58
2022/04/08 00:47:35;;;;;;;;;;;;;;;17.45;66.14;99308.91;5048844;28;1587;-59
2022/04/08 00:50:02;;;;;;;;;;;;;;;17.44;66.20;99313.41;5044457;28;1608;-59
2022/04/08 00:52:28;;;;;;;;;;;;;;;17.48;66.29;99321.94;5052701;28;1447;-58
2022/04/08 00:54:55;;;;;;;;;;;;;;;17.47;66.05;99318.44;5048922;28;1467;-58
2022/04/08 00:57:23;;;;;;;;;;;;;;;17.47;66.25;99309.59;5048274;28;1914;-59
2022/04/08 00:59:50;;;;;;;;;;;;;;;17.46;66.03;99315.91;5050311;28;1770;-58
2022/04/08 01:02:16;;;;;;;;;;;;;;;17.48;65.92;99330.78;5047596;28;1726;-58
2022/04/08 01:04:43;;;;;;;;;;;;;;;17.82;65.00;99321.88;5047857;28;1862;-59
2022/04/08 01:07:09;;;;;;;;;;;;;;;18.48;63.54;99327.34;5039293;28;1393;-59
2022/04/08 01:09:36;;;;;;;;;;;;;;;18.99;61.62;99319.97;5046009;28;982;-59
2022/04/08 01:12:02;;;;;;;;;;;;;;;19.41;60.14;99326.06;5045694;28;1992;-58
2022/04/08 01:14:30;;;;;;;;;;;;;;;19.21;61.40;99301.50;5039887;28;1842;-58
2022/04/08 01:16:57;;;;;;;;;;;;;;;18.66;62.22;99330.72;5047336;28;1580;-58
2022/04/08 01:19:23;;;;;;;;;;;;;;;18.73;62.77;99336.22;5042116;28;1938;-59
2022/04/08 01:21:50;;;;;;;;;;;;;;;19.03;61.04;99345.41;5049918;28;1052;-58
2022/04/08 01:24:17;;;;;;;;;;;;;;;19.04;62.13;99343.59;5052241;28;1608;-59
2022/04/08 01:26:45;;;;;;;;;;;;;;;18.70;62.40;99344.59;5044655;28;1719;-58
2022/04/08 01:29:11;;;;;;;;;;;;;;;18.45;62.90;99335.72;5046491;28;1463;-59
2022/04/08 01:31:43;;;;;;;;;;;;;;;18.86;62.34;99341.09;5048022;28;1572;-58
2022/04/08 01:34:10;;;;;;;;;;;;;;;18.95;62.56;99350.78;5046439;28;1274;-57
2022/04/08 01:36:37;;;;;;;;;;;;;;;18.58;62.35;99333.41;5047463;28;1495;-58
2022/04/08 01:39:03;;;;;;;;;;;;;;;18.61;62.58;99329.53;5048739;28;1902;-59
2022/04/08 01:41:31;;;;;;;;;;;;;;;18.96;62.31;99322.16;5047383;28;1447;-58
2022/04/08 01:43:59;;;;;;;;;;;;;;;18.76;62.23;99327.00;5051083;28;1621;-58
2022/04/08 01:46:25;;;;;;;;;;;;;;;18.43;62.74;99330.53;5047624;28;1513;-59
2022/04/08 01:48:54;;;;;;;;;;;;;;;18.74;61.97;99329.03;5049562;28;1440;-58
2022/04/08 01:51:21;;;;;;;;;;;;;;;19.02;61.83;99318.78;5049847;28;1439;-58
2022/04/08 01:53:48;;;;;;;;;;;;;;;18.73;61.87;99319.34;5051472;28;1707;-58
2022/04/08 01:56:14;;;;;;;;;;;;;;;18.53;62.58;99326.88;5046787;28;1628;-59
2022/04/08 01:58:41;;;;;;;;;;;;;;;18.86;61.53;99333.91;5050786;28;1902;-59
2022/04/08 02:01:09;;;;;;;;;;;;;;;18.91;61.26;99330.72;5045057;28;1602;-58
2022/04/08 02:03:35;;;;;;;;;;;;;;;18.67;62.23;99343.09;5037545;28;982;-59
2022/04/08 02:06:02;;;;;;;;;;;;;;;18.62;62.43;99332.06;5048831;28;1735;-58
2022/04/08 02:08:28;;;;;;;;;;;;;;;19.07;62.25;99343.25;5042347;28;1742;-58
2022/04/08 02:10:55;;;;;;;;;;;;;;;19.05;62.16;99337.22;5047375;28;1588;-58
2022/04/08 02:13:21;;;;;;;;;;;;;;;18.73;61.44;99343.44;5055086;28;1637;-59
2022/04/08 02:15:48;;;;;;;;;;;;;;;18.52;63.64;99351.94;5046175;28;1548;-59
2022/04/08 02:18:16;;;;;;;;;;;;;;;18.95;62.48;99344.59;5049946;28;1902;-59
2022/04/08 02:20:43;;;;;;;;;;;;;;;18.97;62.56;99356.81;5048116;28;1069;-59
2022/04/08 02:23:10;;;;;;;;;;;;;;;18.62;62.47;99364.19;5050757;28;1687;-58
2022/04/08 02:25:36;;;;;;;;;;;;;;;18.84;61.98;99367.19;5048978;28;1437;-58
2022/04/08 02:28:04;;;;;;;;;;;;;;;19.18;61.20;99358.09;5044884;28;1365;-59
2022/04/08 02:30:30;;;;;;;;;;;;;;;18.93;62.07;99355.47;5048210;28;1071;-58
2022/04/08 02:32:57;;;;;;;;;;;;;;;18.61;63.17;99365.19;5048574;28;1750;-58
2022/04/08 02:35:25;;;;;;;;;;;;;;;18.78;62.85;99370.53;5042938;28;1677;-58
2022/04/08 02:37:51;;;;;;;;;;;;;;;19.12;61.01;99359.66;5054482;28;1906;-58
2022/04/08 02:40:18;;;;;;;;;;;;;;;18.83;62.09;99370.91;5051289;28;1434;-58
2022/04/08 02:42:44;;;;;;;;;;;;;;;18.61;63.21;99362.50;5047779;28;1678;-58
2022/04/08 02:45:11;;;;;;;;;;;;;;;18.97;62.62;99364.03;5045252;28;1353;-58
2022/04/08 02:47:41;;;;;;;;;;;;;;;19.16;61.56;99371.69;5044525;28;1520;-58
2022/04/08 02:50:08;;;;;;;;;;;;;;;18.85;61.77;99372.41;5049701;28;1616;-58
2022/04/08 02:52:36;;;;;;;;;;;;;;;18.57;62.58;99361.16;5053868;28;1875;-59
2022/04/08 02:55:03;;;;;;;;;;;;;;;18.89;61.74;99378.25;5046629;28;1393;-59
2022/04/08 02:57:29;;;;;;;;;;;;;;;19.11;61.03;99376.72;5049570;28;1634;-59
2022/04/08 02:59:56;;;;;;;;;;;;;;;18.80;62.75;99381.94;5036499;28;1906;-58
2022/04/08 03:02:23;;;;;;;;;;;;;;;18.59;62.55;99403.84;5044899;28;1660;-58
2022/04/08 03:04:49;;;;;;;;;;;;;;;19.04;62.05;99395.34;5047920;28;1850;-59
2022/04/08 03:07:16;;;;;;;;;;;;;;;19.04;61.20;99395.34;5040716;28;1389;-59
2022/04/08 03:09:43;;;;;;;;;;;;;;;18.66;62.40;99404.84;5047331;28;1011;-58
2022/04/08 03:12:10;;;;;;;;;;;;;;;18.70;62.31;99400.81;5047339;28;1762;-59
2022/04/08 03:14:37;;;;;;;;;;;;;;;19.20;61.02;99413.22;5047051;28;1461;-58
2022/04/08 03:17:04;;;;;;;;;;;;;;;18.91;62.24;99400.34;5047663;28;1528;-58
2022/04/08 03:19:30;;;;;;;;;;;;;;;18.61;62.48;99412.53;5048035;28;1963;-58
2022/04/08 03:21:57;;;;;;;;;;;;;;;18.87;62.00;99412.41;5039589;28;1068;-59
2022/04/08 03:24:23;;;;;;;;;;;;;;;19.14;62.00;99416.59;5047497;28;1699;-58
2022/04/08 03:26:51;;;;;;;;;;;;;;;18.79;61.88;99409.72;5046604;28;1783;-58
2022/04/08 03:29:18;;;;;;;;;;;;;;;18.65;62.21;99421.91;5050134;28;1432;-58
2022/04/08 03:31:44;;;;;;;;;;;;;;;19.06;62.39;99444.22;5044978;28;1632;-59
2022/04/08 03:34:11;;;;;;;;;;;;;;;19.18;61.99;99435.81;5045049;28;1475;-59
2022/04/08 03:36:38;;;;;;;;;;;;;;;18.82;62.83;99445.06;5046999;28;1231;-58
2022/04/08 03:39:04;;;;;;;;;;;;;;;18.58;62.47;99450.34;5047078;28;1971;-58
2022/04/08 03:41:31;;;;;;;;;;;;;;;18.99;62.49;99458.47;5046392;28;1623;-59
2022/04/08 03:43:59;;;;;;;;;;;;;;;19.07;62.42;99443.19;5045344;28;1612;-58
2022/04/08 03:46:26;;;;;;;;;;;;;;;18.79;61.90;99469.50;5051332;28;1637;-59
2022/04/08 03:48:52;;;;;;;;;;;;;;;18.68;62.48;99457.25;5043133;28;1878;-59
2022/04/08 03:51:19;;;;;;;;;;;;;;;19.17;62.27;99459.13;5046387;28;1028;-58
2022/04/08 03:53:45;;;;;;;;;;;;;;;18.95;62.25;99452.59;5049013;28;1742;-58
2022/04/08 03:56:12;;;;;;;;;;;;;;;18.68;62.70;99478.66;5046569;28;1640;-59
2022/04/08 03:58:39;;;;;;;;;;;;;;;18.48;62.90;99469.22;5042855;28;1909;-59
2022/04/08 04:01:07;;;;;;;;;;;;;;;18.37;63.88;99466.88;5052838;28;1750;-59
2022/04/08 04:03:33;;;;;;;;;;;;;;;18.28;63.80;99457.97;5045837;28;1612;-58
2022/04/08 04:06:00;;;;;;;;;;;;;;;18.26;63.95;99478.69;5047475;28;1459;-59
2022/04/08 04:08:26;;;;;;;;;;;;;;;18.25;63.76;99466.34;5048212;28;1708;-60
2022/04/08 04:10:53;;;;;;;;;;;;;;;18.26;63.43;99476.88;5045046;28;1384;-61
2022/04/08 04:13:19;;;;;;;;;;;;;;;18.25;63.08;99504.63;5044657;28;1623;-58
2022/04/08 04:15:46;;;;;;;;;;;;;;;18.23;64.15;99490.56;5052132;28;1499;-66
2022/04/08 04:18:14;;;;;;;;;;;;;;;18.18;63.91;99495.56;5047711;28;1987;-62
2022/04/08 04:20:40;;;;;;;;;;;;;;;18.14;64.35;99506.75;5050019;28;1307;-64
2022/04/08 04:23:07;;;;;;;;;;;;;;;18.03;64.15;99506.03;5048551;28;1377;-73
2022/04/08 04:25:33;;;;;;;;;;;;;;;17.93;64.98;99504.50;5052377;28;1365;-63
2022/04/08 04:28:01;;;;;;;;;;;;;;;17.94;65.15;99517.69;5051394;28;1338;-61
2022/04/08 04:30:27;;;;;;;;;;;;;;;17.94;64.68;99522.19;5051095;28;1399;-58
2022/04/08 04:32:55;;;;;;;;;;;;;;;17.92;64.86;99533.06;5050175;28;1613;-59
2022/04/08 04:35:23;;;;;;;;;;;;;;;17.78;62.58;99537.13;5051539;28;1615;-71
2022/04/08 04:37:49;;;;;;;;;;;;;;;17.76;62.73;99527.59;5041211;28;1649;-59
2022/04/08 04:40:16;;;;;;;;;;;;;;;17.79;63.17;99546.81;5052200;28;1975;-62
2022/04/08 04:42:42;;;;;;;;;;;;;;;17.93;63.98;99536.59;5051752;28;1608;-58
2022/04/08 04:45:10;;;;;;;;;;;;;;;18.00;63.91;99549.13;5053103;28;1508;-57
2022/04/08 04:47:38;;;;;;;;;;;;;;;18.05;63.59;99554.03;5051614;28;1912;-59
2022/04/08 04:50:05;;;;;;;;;;;;;;;17.91;64.14;99554.63;5050903;28;1641;-58
2022/04/08 04:52:32;;;;;;;;;;;;;;;18.04;62.72;99555.84;5052450;28;1449;-57
2022/04/08 04:54:59;;;;;;;;;;;;;;;18.14;61.09;99561.09;5052806;28;1621;-59
2022/04/08 04:57:26;;;;;;;;;;;;;;;18.24;59.75;99571.69;5048961;28;1459;-59
2022/04/08 04:59:53;;;;;;;;;;;;;;;18.32;61.38;99576.22;5042063;28;1906;-59
2022/04/08 05:02:19;;;;;;;;;;;;;;;18.32;61.83;99578.91;5046553;28;1643;-59
2022/04/08 05:04:46;;;;;;;;;;;;;;;18.28;62.38;99579.25;5043978;28;1588;-59
2022/04/08 05:07:12;;;;;;;;;;;;;;;18.20;62.18;99579.19;5038876;28;1679;-59
2022/04/08 05:09:40;;;;;;;;;;;;;;;18.13;62.71;99582.69;5045591;28;1090;-58
2022/04/08 05:12:08;;;;;;;;;;;;;;;18.06;62.96;99585.13;5041386;28;1532;-60
2022/04/08 05:14:34;;;;;;;;;;;;;;;17.96;62.97;99587.06;5054629;28;1398;-59
2022/04/08 05:17:00;;;;;;;;;;;;;;;17.91;63.39;99584.88;5045334;28;1341;-59
2022/04/08 05:19:27;;;;;;;;;;;;;;;17.86;63.22;99596.03;5050061;28;1906;-60
2022/04/08 05:21:54;;;;;;;;;;;;;;;17.92;63.04;99604.44;5042333;28;1006;-59
2022/04/08 05:24:20;;;;;;;;;;;;;;;17.94;63.36;99602.44;5049396;28;1758;-58
2022/04/08 05:26:48;;;;;;;;;;;;;;;17.96;62.78;99603.13;5048201;28;1644;-59
2022/04/08 05:29:15;;;;;;;;;;;;;;;18.00;62.55;99591.09;5044525;28;1298;-57
2022/04/08 05:31:41;;;;;;;;;;;;;;;18.06;63.11;99601.19;5048778;28;1581;-59
2022/04/08 05:34:08;;;;;;;;;;;;;;;18.07;62.30;99598.34;5050401;28;1413;-57
2022/04/08 05:36:34;;;;;;;;;;;;;;;18.13;62.90;99604.91;5049410;28;983;-58
2022/04/08 05:39:01;;;;;;;;;;;;;;;18.19;62.51;99608.78;5051733;28;1910;-57
2022/04/08 05:41:27;;;;;;;;;;;;;;;18.22;62.64;99612.00;5047424;28;1565;-59
2022/04/08 05:43:55;;;;;;;;;;;;;;;18.21;62.43;99612.16;5049330;28;1441;-60
2022/04/08 05:46:22;;;;;;;;;;;;;;;18.23;62.70;99619.00;5048363;28;1441;-59
2022/04/08 05:48:48;;;;;;;;;;;;;;;18.27;62.26;99628.41;5045613;28;1568;-58
2022/04/08 05:51:15;;;;;;;;;;;;;;;18.32;62.02;99637.78;5046380;28;1032;-59
2022/04/08 05:53:41;;;;;;;;;;;;;;;18.33;61.94;99652.88;5044081;28;1783;-58
2022/04/08 05:56:08;;;;;;;;;;;;;;;18.34;62.31;99631.28;5047027;28;1635;-59
2022/04/08 05:58:35;;;;;;;;;;;;;;;18.38;61.75;99645.19;5046656;28;1902;-58
2022/04/08 06:01:03;;;;;;;;;;;;;;;18.39;62.38;99660.25;5047775;28;1549;-58
2022/04/08 06:03:29;;;;;;;;;;;;;;;18.42;62.78;99660.78;5047498;28;1275;-58
2022/04/08 06:05:56;;;;;;;;;;;;;;;18.44;61.73;99647.22;5046855;28;983;-58
2022/04/08 06:08:23;;;;;;;;;;;;;;;18.44;62.56;99665.97;5051219;28;1699;-59
2022/04/08 06:10:49;;;;;;;;;;;;;;;18.45;62.54;99656.94;5049392;28;1322;-57
2022/04/08 06:13:16;;;;;;;;;;;;;;;18.43;62.72;99643.72;5044696;28;1592;-61
2022/04/08 06:15:43;;;;;;;;;;;;;;;18.42;62.35;99638.50;5048762;28;1561;-58
2022/04/08 06:18:13;;;;;;;;;;;;;;;18.42;62.76;99667.97;5050375;28;1528;-60
2022/04/08 06:20:39;;;;;;;;;;;;;;;18.47;62.60;99662.97;5046972;28;1910;-59
2022/04/08 06:23:05;;;;;;;;;;;;;;;18.49;62.68;99677.88;5041823;28;1413;-59
2022/04/08 06:25:32;;;;;;;;;;;;;;;18.55;62.56;99691.63;5043809;28;1560;-57
2022/04/08 06:28:02;;;;;;;;;;;;;;;18.56;62.37;99686.13;5048346;28;1513;-58
2022/04/08 06:30:29;;;;;;;;;;;;;;;18.56;62.46;99694.16;5036842;28;1016;-58
2022/04/08 06:32:55;;;;;;;;;;;;;;;18.62;61.96;99692.66;5048200;28;1707;-60
2022/04/08 06:35:23;;;;;;;;;;;;;;;18.60;62.09;99686.63;5042594;28;1532;-59
2022/04/08 06:37:50;;;;;;;;;;;;;;;18.58;62.83;99692.16;5054602;28;1579;-58
2022/04/08 06:40:17;;;;;;;;;;;;;;;18.54;62.68;99690.78;5046146;28;1887;-59
2022/04/08 06:42:43;;;;;;;;;;;;;;;18.56;61.78;99698.66;5047870;28;1038;-59
2022/04/08 06:45:10;;;;;;;;;;;;;;;18.55;62.04;99703.19;5048279;28;1609;-60
2022/04/08 06:47:44;;;;;;;;;;;;;;;18.59;61.91;99709.91;5044786;28;1460;-58
2022/04/08 06:50:11;;;;;;;;;;;;;;;18.61;62.51;99718.59;5050211;28;1714;-57
2022/04/08 06:52:39;;;;;;;;;;;;;;;18.63;62.29;99711.25;5039069;28;1604;-61
2022/04/08 06:55:06;;;;;;;;;;;;;;;18.61;62.49;99718.59;5045664;28;1655;-59
2022/04/08 06:57:33;;;;;;;;;;;;;;;18.60;62.64;99722.28;5047108;28;1647;-61
2022/04/08 06:59:59;;;;;;;;;;;;;;;18.62;62.19;99714.09;5047471;28;1993;-58
2022/04/08 07:02:26;;;;;;;;;;;;;;;18.61;61.90;99726.63;5045504;28;1660;-58
2022/04/08 07:04:53;;;;;;;;;;;;;;;18.62;62.11;99749.75;5045814;28;1636;-58
2022/04/08 07:07:19;;;;;;;;;;;;;;;18.58;61.99;99734.13;5040547;28;1585;-58
2022/04/08 07:09:47;;;;;;;;;;;;;;;18.61;61.95;99734.66;5047440;28;986;-59
2022/04/08 07:12:14;;;;;;;;;;;;;;;18.65;61.86;99729.84;5049585;28;2125;-59
2022/04/08 07:14:41;;;;;;;;;;;;;;;18.72;62.05;99752.31;5049083;28;1707;-58
2022/04/08 07:17:08;;;;;;;;;;;;;;;18.70;61.99;99748.94;5041681;28;1536;-58
2022/04/08 07:19:34;;;;;;;;;;;;;;;18.73;62.40;99753.16;5048783;28;1977;-59
2022/04/08 07:22:01;;;;;;;;;;;;;;;18.66;61.95;99747.56;5039106;28;1019;-57
2022/04/08 07:24:28;;;;;;;;;;;;;;;18.68;62.58;99767.00;5047488;28;1699;-59
2022/04/08 07:26:56;;;;;;;;;;;;;;;18.69;61.91;99761.50;5049449;28;1524;-59
2022/04/08 07:29:23;;;;;;;;;;;;;;;18.65;62.96;99767.34;5049817;28;1719;-59
2022/04/08 07:31:49;;;;;;;;;;;;;;;18.64;62.09;99761.16;5041627;28;1577;-58
2022/04/08 07:34:16;;;;;;;;;;;;;;;18.67;62.60;99766.16;5045612;28;1987;-59
2022/04/08 07:36:42;;;;;;;;;;;;;;;18.65;61.99;99754.78;5035653;28;1054;-58
2022/04/08 07:39:09;;;;;;;;;;;;;;;18.68;62.39;99756.28;5041159;28;1906;-60
2022/04/08 07:41:36;;;;;;;;;;;;;;;18.65;63.13;99768.16;5046280;28;1556;-58
2022/04/08 07:44:04;;;;;;;;;;;;;;;18.64;61.93;99755.78;5044542;28;1524;-59
2022/04/08 07:46:30;;;;;;;;;;;;;;;18.67;62.58;99778.72;5044638;28;1573;-58
2022/04/08 07:48:57;;;;;;;;;;;;;;;18.66;63.18;99774.34;5046633;28;1580;-59
2022/04/08 07:51:24;;;;;;;;;;;;;;;18.67;61.96;99776.88;5044478;28;1061;-57
2022/04/08 07:53:50;;;;;;;;;;;;;;;18.65;62.25;99775.38;5042988;28;1659;-59
2022/04/08 07:56:17;;;;;;;;;;;;;;;18.63;62.73;99788.91;5044815;28;1565;-58
2022/04/08 07:58:45;;;;;;;;;;;;;;;18.63;62.89;99788.91;5044778;28;1513;-59
2022/04/08 08:01:13;;;;;;;;;;;;;;;18.65;62.00;99799.47;5041900;28;1917;-58
2022/04/08 08:03:42;;;;;;;;;;;;;;;18.67;62.02;99803.66;5040471;28;1579;-58
2022/04/08 08:06:08;;;;;;;;;;;;;;;18.69;62.35;99800.84;5045566;28;1568;-58
2022/04/08 08:08:35;;;;;;;;;;;;;;;18.73;62.30;99790.66;5044582;28;1734;-59
2022/04/08 08:11:02;;;;;;;;;;;;;;;18.73;62.79;99777.25;5045058;28;1608;-59
2022/04/08 08:13:29;;;;;;;;;;;;;;;18.71;62.03;99781.94;5050776;28;1376;-59
2022/04/08 08:15:55;;;;;;;;;;;;;;;18.71;63.12;99798.84;5046593;28;1553;-59
2022/04/08 08:18:25;;;;;;;;;;;;;;;18.69;62.59;99782.09;5045014;28;1577;-58
2022/04/08 08:20:51;;;;;;;;;;;;;;;18.66;63.44;99785.06;5048556;28;1910;-57
2022/04/08 08:23:18;;;;;;;;;;;;;;;18.69;62.84;99788.28;5040529;28;1437;-59
2022/04/08 08:25:45;;;;;;;;;;;;;;;18.71;62.86;99787.28;5042099;28;1620;-58
2022/04/08 08:28:11;;;;;;;;;;;;;;;18.67;62.58;99768.84;5046333;28;1373;-57
2022/04/08 08:30:38;;;;;;;;;;;;;;;18.67;62.91;99798.31;5045459;28;1512;-57
2022/04/08 08:33:06;;;;;;;;;;;;;;;18.71;62.35;99793.47;5045765;28;1044;-57
2022/04/08 08:35:35;;;;;;;;;;;;;;;18.68;62.21;99809.84;5046340;28;1644;-59
2022/04/08 08:38:01;;;;;;;;;;;;;;;18.66;62.61;99807.34;5037542;28;1743;-59
2022/04/08 08:40:30;;;;;;;;;;;;;;;18.62;62.65;99803.31;5044636;28;1976;-58
2022/04/08 08:42:57;;;;;;;;;;;;;;;18.66;63.02;99827.91;5048757;28;1354;-57
2022/04/08 08:45:28;;;;;;;;;;;;;;;18.66;62.31;99817.19;5045843;28;979;-59
2022/04/08 08:47:59;;;;;;;;;;;;;;;18.62;63.21;99806.00;5045090;28;1043;-59
2022/04/08 08:50:26;;;;;;;;;;;;;;;18.61;62.25;99811.50;5046184;28;1612;-58
2022/04/08 08:52:54;;;;;;;;;;;;;;;18.60;63.19;99816.00;5037466;28;1747;-59
2022/04/08 08:55:20;;;;;;;;;;;;;;;18.59;62.80;99818.84;5046024;28;1600;-59
2022/04/08 08:57:48;;;;;;;;;;;;;;;18.60;62.43;99805.31;5044283;28;1394;-58
2022/04/08 09:00:16;;;;;;;;;;;;;;;18.58;62.89;99803.75;5044277;28;1911;-59
2022/04/08 09:02:44;;;;;;;;;;;;;;;18.56;62.29;99806.63;5047680;28;1742;-59
2022/04/08 09:05:12;;;;;;;;;;;;;;;18.56;63.48;99806.63;5044695;28;1699;-57
2022/04/08 09:07:39;;;;;;;;;;;;;;;18.60;62.70;99813.34;5037737;28;1850;-59
2022/04/08 09:10:08;;;;;;;;;;;;;;;18.55;62.40;99799.56;5043691;28;1615;-58
2022/04/08 09:12:34;;;;;;;;;;;;;;;18.56;63.19;99816.47;5044268;28;1457;-57
2022/04/08 09:15:01;;;;;;;;;;;;;;;18.56;62.80;99809.28;5043311;28;1057;-59
2022/04/08 09:17:29;;;;;;;;;;;;;;;18.56;62.32;99820.00;5046478;28;1723;-57
2022/04/08 09:19:56;;;;;;;;;;;;;;;18.54;62.49;99813.94;5045620;28;1906;-58
2022/04/08 09:22:26;;;;;;;;;;;;;;;18.53;62.46;99839.03;5035021;28;1770;-60
2022/04/08 09:24:53;;;;;;;;;;;;;;;18.50;62.78;99828.63;5034162;28;1565;-58
2022/04/08 09:27:21;;;;;;;;;;;;;;;18.48;62.74;99831.47;5045753;28;1019;-58
2022/04/08 09:29:47;;;;;;;;;;;;;;;18.46;63.12;99833.47;5040993;28;1802;-58
2022/04/08 09:32:15;;;;;;;;;;;;;;;18.49;62.74;99816.25;5045853;28;1554;-58
2022/04/08 09:34:43;;;;;;;;;;;;;;;18.49;63.33;99835.00;5044449;28;1465;-58
2022/04/08 09:37:11;;;;;;;;;;;;;;;18.49;63.25;99837.66;5039239;28;1086;-61
2022/04/08 09:39:38;;;;;;;;;;;;;;;18.48;63.33;99828.81;5045701;28;1719;-57
2022/04/08 09:42:07;;;;;;;;;;;;;;;18.49;62.68;99835.00;5045279;28;1708;-59
2022/04/08 09:44:37;;;;;;;;;;;;;;;18.43;63.17;99828.41;5043494;28;1474;-59
2022/04/08 09:47:04;;;;;;;;;;;;;;;18.41;62.80;99849.16;5043537;28;1596;-58
2022/04/08 09:49:30;;;;;;;;;;;;;;;18.40;63.43;99841.25;5043185;28;1628;-58
2022/04/08 09:51:57;;;;;;;;;;;;;;;18.40;63.32;99836.78;5040038;28;1052;-59
2022/04/08 09:54:24;;;;;;;;;;;;;;;18.41;62.87;99840.28;5045549;28;1762;-59
2022/04/08 09:56:52;;;;;;;;;;;;;;;18.40;62.65;99822.53;5044542;28;1857;-58
2022/04/08 09:59:21;;;;;;;;;;;;;;;18.45;63.45;99836.28;5045175;28;1560;-58
2022/04/08 10:01:51;;;;;;;;;;;;;;;18.40;63.84;99834.09;5046072;28;1910;-57
2022/04/08 10:04:20;;;;;;;;;;;;;;;18.40;63.63;99822.53;5046653;28;1640;-59
2022/04/08 10:06:47;;;;;;;;;;;;;;;18.39;62.92;99819.00;5045528;28;1043;-58
2022/04/08 10:09:15;;;;;;;;;;;;;;;18.38;63.77;99820.03;5048266;28;1822;-59
2022/04/08 10:11:44;;;;;;;;;;;;;;;18.37;62.65;99817.50;5043012;28;1428;-60
2022/04/08 10:14:25;;;;;;;;;;;;;;;18.37;63.31;99833.56;5049315;28;1647;-57
2022/04/08 10:16:54;;;;;;;;;;;;;;;18.33;63.61;99832.19;5044111;28;1537;-61
2022/04/08 10:19:22;;;;;;;;;;;;;;;18.38;62.95;99824.50;5046618;28;1674;-58
2022/04/08 10:21:51;;;;;;;;;;;;;;;18.35;63.01;99831.03;5043657;28;1975;-57
2022/04/08 10:24:22;;;;;;;;;;;;;;;18.35;63.10;99825.69;5048645;28;1719;-59
2022/04/08 10:26:58;;;;;;;;;;;;;;;18.33;63.96;99821.47;5042385;28;1524;-59
2022/04/08 10:29:25;;;;;;;;;;;;;;;18.34;63.95;99833.84;5046960;28;1707;-59
2022/04/08 10:31:57;;;;;;;;;;;;;;;18.34;63.91;99839.19;5045675;28;1588;-59
2022/04/08 10:34:24;;;;;;;;;;;;;;;18.31;63.71;99826.16;5048314;28;1412;-58
2022/04/08 10:36:52;;;;;;;;;;;;;;;18.34;63.07;99820.47;5049458;28;1045;-57
2022/04/08 10:39:19;;;;;;;;;;;;;;;18.33;62.73;99841.03;5050688;28;1967;-59
2022/04/08 10:41:47;;;;;;;;;;;;;;;18.32;62.97;99825.97;5046158;28;1910;-57
2022/04/08 10:44:14;;;;;;;;;;;;;;;18.33;62.87;99825.00;5052722;28;1413;-59
2022/04/08 10:46:48;;;;;;;;;;;;;;;18.32;62.72;99842.03;5047459;28;1417;-58
2022/04/08 10:49:16;;;;;;;;;;;;;;;18.33;63.37;99853.59;5044201;28;1576;-58
2022/04/08 10:51:47;;;;;;;;;;;;;;;18.31;63.75;99839.53;5044187;28;1016;-59
2022/04/08 10:54:14;;;;;;;;;;;;;;;18.31;63.76;99829.66;5047640;28;1778;-58
2022/04/08 10:56:40;;;;;;;;;;;;;;;18.31;63.13;99840.38;5046039;28;1568;-59
2022/04/08 10:59:07;;;;;;;;;;;;;;;18.30;63.22;99838.66;5044168;28;1397;-59
2022/04/08 11:01:44;;;;;;;;;;;;;;;18.30;63.73;99833.31;5048934;28;1977;-58
2022/04/08 11:04:11;;;;;;;;;;;;;;;18.32;63.50;99846.53;5045507;28;1397;-57
2022/04/08 11:06:39;;;;;;;;;;;;;;;18.28;63.57;99856.72;5047671;28;1068;-57
2022/04/08 11:09:07;;;;;;;;;;;;;;;18.26;63.80;99851.53;5050199;28;1691;-59
2022/04/08 11:11:34;;;;;;;;;;;;;;;18.28;63.34;99857.56;5042410;28;1382;-57
2022/04/08 11:14:01;;;;;;;;;;;;;;;18.28;63.16;99857.56;5047175;28;1560;-57
2022/04/08 11:16:29;;;;;;;;;;;;;;;18.29;62.85;99858.41;5052032;28;1357;-58
2022/04/08 11:18:56;;;;;;;;;;;;;;;18.27;62.84;99855.88;5045692;28;1387;-58
2022/04/08 11:21:23;;;;;;;;;;;;;;;18.28;63.42;99851.34;5047968;28;1981;-59
2022/04/08 11:23:58;;;;;;;;;;;;;;;18.25;63.63;99847.16;5049526;28;1516;-59
2022/04/08 11:26:27;;;;;;;;;;;;;;;18.28;63.21;99868.28;5047609;28;1582;-58
2022/04/08 11:28:54;;;;;;;;;;;;;;;18.29;63.12;99851.22;5045351;28;1302;-59
2022/04/08 11:31:21;;;;;;;;;;;;;;;18.28;63.24;99857.56;5046870;28;1428;-59
2022/04/08 11:33:47;;;;;;;;;;;;;;;18.24;63.20;99858.88;5044930;28;1509;-59
2022/04/08 11:36:15;;;;;;;;;;;;;;;18.25;63.19;99862.38;5044768;28;978;-60
2022/04/08 11:38:43;;;;;;;;;;;;;;;18.26;62.94;99862.25;5041027;28;1516;-59
2022/04/08 11:41:19;;;;;;;;;;;;;;;18.26;62.57;99853.34;5042776;28;1979;-59
2022/04/08 11:43:46;;;;;;;;;;;;;;;18.27;63.05;99850.53;5042717;28;1584;-59
2022/04/08 11:46:14;;;;;;;;;;;;;;;18.25;63.37;99849.00;5051019;28;1418;-59
2022/04/08 11:48:40;;;;;;;;;;;;;;;18.26;63.50;99864.91;5045882;28;1436;-61
2022/04/08 11:51:07;;;;;;;;;;;;;;;18.28;62.70;99852.22;5046829;28;985;-58
2022/04/08 11:53:42;;;;;;;;;;;;;;;18.28;62.79;99859.38;5049361;28;1500;-59
2022/04/08 11:56:09;;;;;;;;;;;;;;;18.28;63.24;99854.03;5044617;28;1576;-58
2022/04/08 11:58:37;;;;;;;;;;;;;;;18.27;62.98;99855.03;5046981;28;1275;-57
2022/04/08 12:01:05;;;;;;;;;;;;;;;18.28;62.52;99846.00;5043638;28;1906;-60
2022/04/08 12:03:33;;;;;;;;;;;;;;;18.26;63.45;99846.19;5036126;28;1585;-58
2022/04/08 12:06:00;;;;;;;;;;;;;;;18.26;63.25;99843.50;5045445;28;1097;-59
2022/04/08 12:08:27;;;;;;;;;;;;;;;18.26;63.46;99859.56;5039841;28;1873;-59
2022/04/08 12:10:54;;;;;;;;;;;;;;;18.25;63.31;99843.66;5044290;28;1628;-59
2022/04/08 12:13:23;;;;;;;;;;;;;;;18.26;63.61;99832.81;5046005;28;1469;-58
2022/04/08 12:15:51;;;;;;;;;;;;;;;18.24;63.47;99833.94;5050207;28;1417;-58
2022/04/08 12:18:21;;;;;;;;;;;;;;;18.26;62.89;99846.19;5044901;28;1958;-59
2022/04/08 12:20:52;;;;;;;;;;;;;;;18.22;63.43;99842.13;5044692;28;1902;-59
2022/04/08 12:23:20;;;;;;;;;;;;;;;18.25;62.94;99844.47;5047758;28;1555;-59
2022/04/08 12:25:49;;;;;;;;;;;;;;;18.26;62.79;99835.47;5052316;28;1490;-58
2022/04/08 12:28:16;;;;;;;;;;;;;;;18.25;61.76;99852.50;5050607;28;1421;-60
2022/04/08 12:30:42;;;;;;;;;;;;;;;18.27;61.86;99860.41;5051937;28;1385;-58
2022/04/08 12:33:10;;;;;;;;;;;;;;;18.26;61.49;99848.84;5047347;28;1118;-59
2022/04/08 12:35:36;;;;;;;;;;;;;;;18.25;61.22;99839.13;5050318;28;1731;-60
2022/04/08 12:38:04;;;;;;;;;;;;;;;18.26;60.53;99810.53;5052538;28;1962;-60
2022/04/08 12:40:31;;;;;;;;;;;;;;;18.25;60.07;99835.63;5045690;28;1425;-58
2022/04/08 12:42:57;;;;;;;;;;;;;;;18.25;60.96;99830.28;5048972;28;1902;-59
2022/04/08 12:45:24;;;;;;;;;;;;;;;18.24;60.32;99834.78;5053855;28;1551;-58
2022/04/08 12:47:52;;;;;;;;;;;;;;;18.25;60.57;99820.41;5052611;28;1603;-61
2022/04/08 12:50:20;;;;;;;;;;;;;;;18.21;60.83;99829.72;5048463;28;1707;-60
2022/04/08 12:52:46;;;;;;;;;;;;;;;18.23;60.04;99837.63;5051798;28;1645;-58
2022/04/08 12:55:13;;;;;;;;;;;;;;;18.27;59.90;99826.44;5049347;28;1328;-59
2022/04/08 12:57:41;;;;;;;;;;;;;;;18.45;59.97;99825.59;5051901;28;1471;-55